Time,TemperatureF,DewpointF,PressureIn,WindDirection,WindDirectionDegrees,WindSpeedMPH,WindSpeedGustMPH,Humidity,HourlyPrecipIn,Conditions,Clouds,dailyrainin,SoftwareType,DateUTC
2013-06-30 00:33:00,58.0,-99.9,29.86,WNW,292,30.0,35.0,-999,-99.99,,,-99.99,,2013-06-30 07:33:00,
2013-06-30 00:44:00,58.0,-99.9,29.86,WNW,291,28.0,34.0,-999,-99.99,,,-99.99,,2013-06-30 07:44:00,
2013-06-30 00:53:00,58.0,-99.9,29.86,WNW,290,28.0,34.0,-999,-99.99,,,-99.99,,2013-06-30 07:53:00,
2013-06-30 01:02:00,58.0,-99.9,29.86,WNW,292,27.0,32.0,-999,-99.99,,,-99.99,,2013-06-30 08:02:00,
2013-06-30 01:12:00,58.0,-99.9,29.86,WNW,294,27.0,33.0,-999,-99.99,,,-99.99,,2013-06-30 08:12:00,
2013-06-30 01:34:00,58.0,-99.9,29.86,WNW,295,27.0,33.0,-999,-99.99,,,-99.99,,2013-06-30 08:34:00,
2013-06-30 01:42:00,58.0,-99.9,29.85,WNW,295,27.0,32.0,-999,-99.99,,,-99.99,,2013-06-30 08:42:00,
2013-06-30 01:53:00,58.0,-99.9,29.85,WNW,294,26.0,31.0,-999,-99.99,,,-99.99,,2013-06-30 08:53:00,
2013-06-30 02:02:00,58.0,-99.9,29.85,WNW,295,26.0,32.0,-999,-99.99,,,-99.99,,2013-06-30 09:02:00,
2013-06-30 02:12:00,57.0,-99.9,29.85,WNW,297,26.0,31.0,-999,-99.99,,,-99.99,,2013-06-30 09:12:00,
2013-06-30 02:34:00,58.0,-99.9,29.85,WNW,296,26.0,29.0,-999,-99.99,,,-99.99,,2013-06-30 09:34:00,
2013-06-30 02:43:00,58.0,-99.9,29.85,WNW,296,24.0,31.0,-999,-99.99,,,-99.99,,2013-06-30 09:43:00,
2013-06-30 02:53:00,57.0,-99.9,29.85,WNW,298,23.0,30.0,-999,-99.99,,,-99.99,,2013-06-30 09:53:00,
2013-06-30 03:02:00,58.0,-99.9,29.85,WNW,293,25.0,30.0,-999,-99.99,,,-99.99,,2013-06-30 10:02:00,
2013-06-30 03:11:00,58.0,-99.9,29.85,WNW,292,26.0,30.0,-999,-99.99,,,-99.99,,2013-06-30 10:11:00,
2013-06-30 03:34:00,57.0,-99.9,29.85,WNW,292,26.0,31.0,-999,-99.99,,,-99.99,,2013-06-30 10:34:00,
2013-06-30 03:43:00,57.0,-99.9,29.84,WNW,295,26.0,31.0,-999,-99.99,,,-99.99,,2013-06-30 10:43:00,
2013-06-30 03:53:00,57.0,-99.9,29.84,WNW,294,25.0,30.0,-999,-99.99,,,-99.99,,2013-06-30 10:53:00,
2013-06-30 04:02:00,57.0,-99.9,29.84,WNW,292,27.0,30.0,-999,-99.99,,,-99.99,,2013-06-30 11:02:00,
2013-06-30 04:11:00,57.0,-99.9,29.83,WNW,291,27.0,32.0,-999,-99.99,,,-99.99,,2013-06-30 11:11:00,
2013-06-30 04:33:00,57.0,-99.9,29.83,WNW,293,26.0,34.0,-999,-99.99,,,-99.99,,2013-06-30 11:33:00,
2013-06-30 04:43:00,57.0,-99.9,29.84,WNW,297,26.0,30.0,-999,-99.99,,,-99.99,,2013-06-30 11:43:00,
2013-06-30 04:53:00,57.0,-99.9,29.84,WNW,297,24.0,29.0,-999,-99.99,,,-99.99,,2013-06-30 11:53:00,
2013-06-30 05:02:00,57.0,-99.9,29.83,WNW,294,28.0,32.0,-999,-99.99,,,-99.99,,2013-06-30 12:02:00,
2013-06-30 05:12:00,57.0,-99.9,29.83,WNW,294,28.0,31.0,-999,-99.99,,,-99.99,,2013-06-30 12:12:00,
2013-06-30 05:33:00,57.0,-99.9,29.83,WNW,295,27.0,30.0,-999,-99.99,,,-99.99,,2013-06-30 12:33:00,
2013-06-30 05:43:00,57.0,-99.9,29.84,WNW,296,26.0,32.0,-999,-99.99,,,-99.99,,2013-06-30 12:43:00,
2013-06-30 05:52:00,57.0,-99.9,29.84,WNW,297,27.0,32.0,-999,-99.99,,,-99.99,,2013-06-30 12:52:00,
2013-06-30 06:02:00,57.0,-99.9,29.83,WNW,296,28.0,32.0,-999,-99.99,,,-99.99,,2013-06-30 13:02:00,
2013-06-30 06:12:00,57.0,-99.9,29.83,WNW,298,27.0,35.0,-999,-99.99,,,-99.99,,2013-06-30 13:12:00,
2013-06-30 06:34:00,57.0,-99.9,29.84,WNW,296,28.0,34.0,-999,-99.99,,,-99.99,,2013-06-30 13:34:00,
2013-06-30 06:44:00,57.0,-99.9,29.83,WNW,295,29.0,32.0,-999,-99.99,,,-99.99,,2013-06-30 13:44:00,
2013-06-30 06:53:00,57.0,-99.9,29.84,WNW,298,30.0,34.0,-999,-99.99,,,-99.99,,2013-06-30 13:53:00,
2013-06-30 07:02:00,57.0,-99.9,29.84,WNW,298,29.0,34.0,-999,-99.99,,,-99.99,,2013-06-30 14:02:00,
2013-06-30 07:11:00,57.0,-99.9,29.84,WNW,299,28.0,33.0,-999,-99.99,,,-99.99,,2013-06-30 14:11:00,
2013-06-30 07:33:00,56.0,-99.9,29.85,WNW,303,26.0,31.0,-999,-99.99,,,-99.99,,2013-06-30 14:33:00,
2013-06-30 07:44:00,57.0,-99.9,29.85,NW,304,26.0,30.0,-999,-99.99,,,-99.99,,2013-06-30 14:44:00,
2013-06-30 07:52:00,57.0,-99.9,29.85,NW,304,27.0,32.0,-999,-99.99,,,-99.99,,2013-06-30 14:52:00,
2013-06-30 08:02:00,57.0,-99.9,29.85,NW,304,26.0,30.0,-999,-99.99,,,-99.99,,2013-06-30 15:02:00,
2013-06-30 08:12:00,57.0,-99.9,29.86,NW,306,23.0,29.0,-999,-99.99,,,-99.99,,2013-06-30 15:12:00,
2013-06-30 08:35:00,57.0,-99.9,29.86,NW,309,21.0,27.0,-999,-99.99,,,-99.99,,2013-06-30 15:35:00,
2013-06-30 08:44:00,57.0,-99.9,29.86,NW,309,21.0,27.0,-999,-99.99,,,-99.99,,2013-06-30 15:44:00,
2013-06-30 08:53:00,57.0,-99.9,29.86,NW,307,22.0,28.0,-999,-99.99,,,-99.99,,2013-06-30 15:53:00,
2013-06-30 09:01:00,57.0,-99.9,29.86,NW,307,22.0,28.0,-999,-99.99,,,-99.99,,2013-06-30 16:01:00,
2013-06-30 09:11:00,57.0,-99.9,29.86,NW,307,22.0,28.0,-999,-99.99,,,-99.99,,2013-06-30 16:11:00,
2013-06-30 09:34:00,57.0,-99.9,29.87,NW,312,24.0,27.0,-999,-99.99,,,-99.99,,2013-06-30 16:34:00,
2013-06-30 09:44:00,56.0,-99.9,29.87,NW,319,22.0,28.0,-999,-99.99,,,-99.99,,2013-06-30 16:44:00,
2013-06-30 09:53:00,56.0,-99.9,29.88,NW,319,21.0,27.0,-999,-99.99,,,-99.99,,2013-06-30 16:53:00,
2013-06-30 10:02:00,56.0,-99.9,29.88,NW,306,22.0,28.0,-999,-99.99,,,-99.99,,2013-06-30 17:02:00,
2013-06-30 10:12:00,55.0,-99.9,29.87,NW,311,24.0,29.0,-999,-99.99,,,-99.99,,2013-06-30 17:12:00,
2013-06-30 10:34:00,55.0,-99.9,29.88,NW,315,20.0,25.0,-999,-99.99,,,-99.99,,2013-06-30 17:34:00,
2013-06-30 10:43:00,56.0,-99.9,29.88,NW,317,16.0,22.0,-999,-99.99,,,-99.99,,2013-06-30 17:43:00,
2013-06-30 10:53:00,55.0,-99.9,29.88,NW,324,14.0,20.0,-999,-99.99,,,-99.99,,2013-06-30 17:53:00,
2013-06-30 11:02:00,56.0,-99.9,29.88,NW,316,17.0,20.0,-999,-99.99,,,-99.99,,2013-06-30 18:02:00,
2013-06-30 11:12:00,55.0,-99.9,29.88,NW,320,17.0,20.0,-999,-99.99,,,-99.99,,2013-06-30 18:12:00,
2013-06-30 11:34:00,56.0,-99.9,29.89,NW,315,14.0,21.0,-999,-99.99,,,-99.99,,2013-06-30 18:34:00,
2013-06-30 11:43:00,56.0,-99.9,29.89,NW,318,17.0,23.0,-999,-99.99,,,-99.99,,2013-06-30 18:43:00,
2013-06-30 11:53:00,56.0,-99.9,29.89,NW,321,13.0,22.0,-999,-99.99,,,-99.99,,2013-06-30 18:53:00,
2013-06-30 12:01:00,57.0,-99.9,29.89,NNW,327,18.0,22.0,-999,-99.99,,,-99.99,,2013-06-30 19:01:00,
2013-06-30 12:12:00,57.0,-99.9,29.89,NW,321,17.0,22.0,-999,-99.99,,,-99.99,,2013-06-30 19:12:00,
2013-06-30 12:33:00,57.0,-99.9,29.89,NW,318,14.0,20.0,-999,-99.99,,,-99.99,,2013-06-30 19:33:00,
2013-06-30 12:43:00,57.0,-99.9,29.88,NW,310,22.0,26.0,-999,-99.99,,,-99.99,,2013-06-30 19:43:00,
2013-06-30 12:53:00,57.0,-99.9,29.88,NW,308,22.0,27.0,-999,-99.99,,,-99.99,,2013-06-30 19:53:00,
2013-06-30 13:02:00,56.0,-99.9,29.88,NW,311,20.0,26.0,-999,-99.99,,,-99.99,,2013-06-30 20:02:00,
2013-06-30 13:12:00,56.0,-99.9,29.88,NW,312,19.0,28.0,-999,-99.99,,,-99.99,,2013-06-30 20:12:00,
2013-06-30 13:34:00,56.0,-99.9,29.88,NW,312,19.0,25.0,-999,-99.99,,,-99.99,,2013-06-30 20:34:00,
2013-06-30 13:42:00,56.0,-99.9,29.88,NW,320,17.0,25.0,-999,-99.99,,,-99.99,,2013-06-30 20:42:00,
2013-06-30 13:52:00,56.0,-99.9,29.88,NW,320,19.0,24.0,-999,-99.99,,,-99.99,,2013-06-30 20:52:00,
2013-06-30 14:01:00,56.0,-99.9,29.88,NW,318,18.0,23.0,-999,-99.99,,,-99.99,,2013-06-30 21:01:00,
2013-06-30 14:11:00,56.0,-99.9,29.88,NW,316,20.0,24.0,-999,-99.99,,,-99.99,,2013-06-30 21:11:00,
2013-06-30 14:34:00,57.0,-99.9,29.87,NW,313,22.0,26.0,-999,-99.99,,,-99.99,,2013-06-30 21:34:00,
2013-06-30 14:43:00,57.0,-99.9,29.86,NW,314,21.0,25.0,-999,-99.99,,,-99.99,,2013-06-30 21:43:00,
2013-06-30 14:53:00,57.0,-99.9,29.86,NW,313,22.0,27.0,-999,-99.99,,,-99.99,,2013-06-30 21:53:00,
2013-06-30 15:01:00,57.0,-99.9,29.86,NW,309,22.0,28.0,-999,-99.99,,,-99.99,,2013-06-30 22:01:00,
2013-06-30 15:11:00,57.0,-99.9,29.86,NW,312,17.0,23.0,-999,-99.99,,,-99.99,,2013-06-30 22:11:00,
2013-06-30 15:34:00,57.0,-99.9,29.86,NW,324,14.0,19.0,-999,-99.99,,,-99.99,,2013-06-30 22:34:00,
2013-06-30 15:43:00,58.0,-99.9,29.86,NW,317,14.0,21.0,-999,-99.99,,,-99.99,,2013-06-30 22:43:00,
2013-06-30 15:53:00,58.0,-99.9,29.86,NW,308,15.0,19.0,-999,-99.99,,,-99.99,,2013-06-30 22:53:00,
2013-06-30 16:02:00,59.0,-99.9,29.86,NW,313,17.0,25.0,-999,-99.99,,,-99.99,,2013-06-30 23:02:00,
2013-06-30 16:11:00,59.0,-99.9,29.85,NW,312,16.0,22.0,-999,-99.99,,,-99.99,,2013-06-30 23:11:00,
2013-06-30 16:33:00,60.0,-99.9,29.84,WNW,297,19.0,25.0,-999,-99.99,,,-99.99,,2013-06-30 23:33:00,
2013-06-30 16:44:00,59.0,-99.9,29.84,WNW,301,21.0,25.0,-999,-99.99,,,-99.99,,2013-06-30 23:44:00,
2013-06-30 16:53:00,59.0,-99.9,29.84,NW,305,24.0,29.0,-999,-99.99,,,-99.99,,2013-06-30 23:53:00,
2013-06-30 17:01:00,59.0,-99.9,29.83,NW,306,22.0,26.0,-999,-99.99,,,-99.99,,2013-07-01 00:01:00,
2013-06-30 17:11:00,60.0,-99.9,29.83,WNW,295,23.0,27.0,-999,-99.99,,,-99.99,,2013-07-01 00:11:00,
2013-06-30 17:33:00,59.0,-99.9,29.82,WNW,299,27.0,33.0,-999,-99.99,,,-99.99,,2013-07-01 00:33:00,
2013-06-30 17:42:00,59.0,-99.9,29.82,WNW,303,26.0,32.0,-999,-99.99,,,-99.99,,2013-07-01 00:42:00,
2013-06-30 17:52:00,59.0,-99.9,29.82,WNW,301,26.0,32.0,-999,-99.99,,,-99.99,,2013-07-01 00:52:00,
2013-06-30 18:01:00,59.0,-99.9,29.82,WNW,292,27.0,32.0,-999,-99.99,,,-99.99,,2013-07-01 01:01:00,
2013-06-30 18:12:00,59.0,-99.9,29.82,WNW,297,22.0,28.0,-999,-99.99,,,-99.99,,2013-07-01 01:12:00,
2013-06-30 18:34:00,59.0,-99.9,29.83,NW,305,16.0,23.0,-999,-99.99,,,-99.99,,2013-07-01 01:34:00,
2013-06-30 18:43:00,59.0,-99.9,29.83,NW,311,17.0,23.0,-999,-99.99,,,-99.99,,2013-07-01 01:43:00,
2013-06-30 18:52:00,59.0,-99.9,29.83,NW,310,19.0,21.0,-999,-99.99,,,-99.99,,2013-07-01 01:52:00,
2013-06-30 19:02:00,59.0,-99.9,29.82,NW,311,17.0,22.0,-999,-99.99,,,-99.99,,2013-07-01 02:02:00,
2013-06-30 19:12:00,59.0,-99.9,29.82,NW,306,18.0,22.0,-999,-99.99,,,-99.99,,2013-07-01 02:12:00,
2013-06-30 19:33:00,59.0,-99.9,29.82,NW,307,18.0,25.0,-999,-99.99,,,-99.99,,2013-07-01 02:33:00,
2013-06-30 19:44:00,59.0,-99.9,29.81,NW,304,20.0,23.0,-999,-99.99,,,-99.99,,2013-07-01 02:44:00,
2013-06-30 19:54:00,59.0,-99.9,29.81,WNW,303,19.0,23.0,-999,-99.99,,,-99.99,,2013-07-01 02:54:00,
2013-06-30 20:01:00,59.0,-99.9,29.80,WNW,302,24.0,28.0,-999,-99.99,,,-99.99,,2013-07-01 03:01:00,
2013-06-30 20:23:00,59.0,-99.9,29.80,WNW,301,24.0,28.0,-999,-99.99,,,-99.99,,2013-07-01 03:23:00,
2013-06-30 20:33:00,59.0,-99.9,29.80,WNW,300,25.0,29.0,-999,-99.99,,,-99.99,,2013-07-01 03:33:00,
2013-06-30 20:43:00,58.0,-99.9,29.80,WNW,295,25.0,32.0,-999,-99.99,,,-99.99,,2013-07-01 03:43:00,
2013-06-30 20:53:00,58.0,-99.9,29.80,WNW,292,26.0,31.0,-999,-99.99,,,-99.99,,2013-07-01 03:53:00,
2013-06-30 21:01:00,59.0,-99.9,29.80,WNW,298,30.0,33.0,-999,-99.99,,,-99.99,,2013-07-01 04:01:00,
2013-06-30 21:11:00,58.0,-99.9,29.80,WNW,299,28.0,32.0,-999,-99.99,,,-99.99,,2013-07-01 04:11:00,
2013-06-30 21:32:00,58.0,-99.9,29.80,WNW,300,28.0,33.0,-999,-99.99,,,-99.99,,2013-07-01 04:32:00,
2013-06-30 21:43:00,58.0,-99.9,29.80,WNW,299,28.0,32.0,-999,-99.99,,,-99.99,,2013-07-01 04:43:00,
2013-06-30 21:53:00,58.0,-99.9,29.80,WNW,296,27.0,32.0,-999,-99.99,,,-99.99,,2013-07-01 04:53:00,
2013-06-30 22:02:00,58.0,-99.9,29.81,WNW,296,30.0,35.0,-999,-99.99,,,-99.99,,2013-07-01 05:02:00,
2013-06-30 22:11:00,58.0,-99.9,29.81,WNW,300,30.0,34.0,-999,-99.99,,,-99.99,,2013-07-01 05:11:00,
2013-06-30 22:33:00,56.0,-99.9,29.82,WNW,302,31.0,41.0,-999,-99.99,,,-99.99,,2013-07-01 05:33:00,
2013-06-30 22:42:00,56.0,-99.9,29.82,NW,305,30.0,36.0,-999,-99.99,,,-99.99,,2013-07-01 05:42:00,
2013-06-30 22:52:00,56.0,-99.9,29.83,NW,305,30.0,37.0,-999,-99.99,,,-99.99,,2013-07-01 05:52:00,
2013-06-30 23:02:00,56.0,-99.9,29.83,NW,309,28.0,35.0,-999,-99.99,,,-99.99,,2013-07-01 06:02:00,
2013-06-30 23:24:00,55.0,-99.9,29.84,NW,313,27.0,31.0,-999,-99.99,,,-99.99,,2013-07-01 06:24:00,
2013-06-30 23:34:00,55.0,-99.9,29.84,NW,313,26.0,32.0,-999,-99.99,,,-99.99,,2013-07-01 06:34:00,
2013-06-30 23:43:00,55.0,-99.9,29.84,NW,314,23.0,28.0,-999,-99.99,,,-99.99,,2013-07-01 06:43:00,
2013-06-30 23:53:00,55.0,-99.9,29.84,NW,313,25.0,29.0,-999,-99.99,,,-99.99,,2013-07-01 06:53:00,